createdAt,value
2018-07-03T00:01:51.579Z,13.70
2018-07-03T00:04:25.757Z,13.60
2018-07-03T00:07:00.356Z,13.60
2018-07-03T00:09:34.309Z,13.60
2018-07-03T00:14:42.501Z,13.60
2018-07-03T00:17:17.486Z,13.60
2018-07-03T00:19:51.958Z,13.60
2018-07-03T00:22:26.141Z,13.60
2018-07-03T00:25:00.285Z,13.60
2018-07-03T00:27:34.731Z,13.60
2018-07-03T00:30:08.720Z,13.50
2018-07-03T00:32:42.939Z,13.50
2018-07-03T00:35:16.885Z,13.50
2018-07-03T00:37:51.060Z,13.50
2018-07-03T00:40:25.056Z,13.40
2018-07-03T00:42:58.958Z,13.40
2018-07-03T00:45:32.860Z,13.30
2018-07-03T00:50:41.088Z,13.20
2018-07-03T00:53:15.164Z,13.20
2018-07-03T00:55:49.269Z,13.20
2018-07-03T00:58:23.276Z,13.10
2018-07-03T01:00:57.439Z,13.10
2018-07-03T01:03:31.271Z,13.00
2018-07-03T01:06:05.840Z,13.00
2018-07-03T01:08:39.914Z,12.90
2018-07-03T01:11:13.820Z,12.80
2018-07-03T01:13:47.914Z,12.70
2018-07-03T01:16:21.853Z,12.60
2018-07-03T01:18:55.838Z,12.60
2018-07-03T01:21:30.080Z,12.60
2018-07-03T01:24:03.885Z,12.60
2018-07-03T01:26:37.941Z,12.50
2018-07-03T01:29:11.851Z,12.40
2018-07-03T01:31:46.122Z,12.30
2018-07-03T01:34:20.228Z,12.30
2018-07-03T01:36:54.059Z,12.30
2018-07-03T01:39:28.040Z,12.20
2018-07-03T01:42:01.859Z,12.20
2018-07-03T01:44:36.074Z,12.10
2018-07-03T01:47:10.213Z,12.10
2018-07-03T01:49:44.089Z,12.20
2018-07-03T01:52:18.538Z,12.30
2018-07-03T01:54:52.463Z,12.20
2018-07-03T01:57:26.476Z,12.10
2018-07-03T02:00:00.532Z,12.10
2018-07-03T02:02:34.776Z,12.00
2018-07-03T02:05:09.158Z,12.00
2018-07-03T02:07:43.294Z,12.00
2018-07-03T02:10:17.090Z,12.00
2018-07-03T02:12:51.442Z,11.90
2018-07-03T02:15:25.397Z,11.80
2018-07-03T02:17:59.475Z,11.80
2018-07-03T02:20:33.333Z,11.80
2018-07-03T02:23:08.210Z,11.80
2018-07-03T02:25:42.118Z,11.80
2018-07-03T02:28:15.984Z,11.70
2018-07-03T02:30:50.073Z,11.60
2018-07-03T02:33:23.877Z,11.50
2018-07-03T02:35:57.808Z,11.40
2018-07-03T02:38:31.815Z,11.30
2018-07-03T02:41:06.623Z,11.30
2018-07-03T02:43:41.186Z,11.40
2018-07-03T02:46:15.094Z,11.40
2018-07-03T02:48:49.315Z,11.50
2018-07-03T02:51:23.380Z,11.50
2018-07-03T02:53:57.343Z,11.40
2018-07-03T02:56:31.267Z,11.40
2018-07-03T02:59:05.417Z,11.30
2018-07-03T03:01:39.757Z,11.20
2018-07-03T03:04:14.286Z,11.20
2018-07-03T03:06:48.518Z,11.20
2018-07-03T03:09:22.675Z,11.20
2018-07-03T03:11:56.684Z,11.20
2018-07-03T03:14:30.645Z,11.20
2018-07-03T03:17:04.738Z,11.20
2018-07-03T03:19:38.773Z,11.30
2018-07-03T03:22:12.829Z,11.30
2018-07-03T03:24:47.008Z,11.30
2018-07-03T03:29:55.213Z,11.20
2018-07-03T03:32:29.186Z,11.20
2018-07-03T03:35:03.490Z,11.10
2018-07-03T03:37:37.718Z,11.00
2018-07-03T03:40:11.668Z,11.00
2018-07-03T03:42:45.803Z,11.10
2018-07-03T03:45:20.056Z,11.20
2018-07-03T03:47:53.904Z,11.10
2018-07-03T03:50:27.915Z,11.10
2018-07-03T03:53:02.139Z,11.10
2018-07-03T03:55:36.098Z,11.20
2018-07-03T03:58:10.138Z,11.30
2018-07-03T04:00:44.380Z,11.30
2018-07-03T04:03:18.574Z,11.40
2018-07-03T04:05:52.855Z,11.60
2018-07-03T04:08:27.040Z,11.50
2018-07-03T04:11:01.021Z,11.50
2018-07-03T04:13:35.006Z,11.50
2018-07-03T04:16:08.879Z,11.50
2018-07-03T04:18:42.781Z,11.60
2018-07-03T04:21:17.300Z,11.60
2018-07-03T04:23:51.433Z,11.70
2018-07-03T04:26:25.358Z,11.80
2018-07-03T04:29:02.480Z,11.90
2018-07-03T04:31:36.488Z,11.90
2018-07-03T04:34:10.806Z,11.90
2018-07-03T04:36:45.428Z,12.00
2018-07-03T04:39:19.879Z,12.10
2018-07-03T04:41:53.953Z,12.20
2018-07-03T04:44:28.095Z,12.30
2018-07-03T04:47:02.241Z,12.40
2018-07-03T04:49:36.153Z,12.50
2018-07-03T04:52:10.244Z,12.60
2018-07-03T04:54:44.498Z,12.60
2018-07-03T04:57:19.377Z,12.70
2018-07-03T04:59:53.557Z,12.80
2018-07-03T05:02:27.308Z,12.90
2018-07-03T05:05:01.660Z,13.00
2018-07-03T05:07:36.165Z,13.00
2018-07-03T05:10:10.301Z,13.10
2018-07-03T05:12:44.309Z,13.20
2018-07-03T05:15:18.900Z,13.30
2018-07-03T05:17:52.910Z,13.40
2018-07-03T05:23:01.612Z,13.60
2018-07-03T05:25:35.493Z,13.80
2018-07-03T05:28:09.788Z,13.90
2018-07-03T05:30:47.688Z,14.00
2018-07-03T05:33:22.225Z,14.20
2018-07-03T05:35:56.494Z,14.40
2018-07-03T05:38:30.565Z,14.50
2018-07-03T05:41:05.236Z,14.60
2018-07-03T05:43:39.442Z,14.80
2018-07-03T05:46:13.455Z,14.90
2018-07-03T05:48:47.543Z,15.10
2018-07-03T05:51:22.133Z,15.30
2018-07-03T05:53:56.074Z,15.40
2018-07-03T05:56:30.167Z,15.50
2018-07-03T05:59:04.296Z,15.70
2018-07-03T06:01:38.317Z,15.90
2018-07-03T06:04:12.661Z,16.00
2018-07-03T06:06:47.059Z,16.20
2018-07-03T06:09:21.353Z,16.40
2018-07-03T06:11:55.460Z,16.50
2018-07-03T06:14:29.557Z,16.70
2018-07-03T06:17:03.356Z,16.90
2018-07-03T06:19:37.350Z,17.10
2018-07-03T06:22:11.225Z,17.20
2018-07-03T06:24:45.176Z,17.40
2018-07-03T06:27:19.285Z,17.60
2018-07-03T06:29:53.232Z,17.80
2018-07-03T06:32:27.676Z,17.90
2018-07-03T06:35:01.819Z,18.10
2018-07-03T06:37:35.862Z,18.30
2018-07-03T06:40:10.911Z,18.40
2018-07-03T06:42:44.995Z,18.60
2018-07-03T06:45:19.096Z,18.80
2018-07-03T06:47:53.070Z,18.90
2018-07-03T06:50:27.554Z,19.00
2018-07-03T06:53:01.420Z,19.20
2018-07-03T06:55:35.692Z,19.40
2018-07-03T06:58:10.354Z,19.60
2018-07-03T07:00:44.439Z,19.70
2018-07-03T07:03:18.911Z,19.90
2018-07-03T07:05:53.031Z,20.00
2018-07-03T07:08:27.044Z,20.20
2018-07-03T07:11:01.176Z,20.30
2018-07-03T07:13:35.120Z,20.40
2018-07-03T07:16:09.242Z,20.60
2018-07-03T07:18:43.114Z,20.70
2018-07-03T07:21:17.570Z,20.90
2018-07-03T07:23:51.591Z,21.00
2018-07-03T07:26:25.912Z,21.20
2018-07-03T07:28:59.705Z,21.40
2018-07-03T07:31:33.634Z,21.50
2018-07-03T07:34:08.034Z,21.70
2018-07-03T07:36:42.245Z,21.80
2018-07-03T07:39:16.598Z,21.90
2018-07-03T07:44:24.797Z,22.10
2018-07-03T07:46:59.074Z,22.20
2018-07-03T07:49:33.492Z,22.30
2018-07-03T07:52:07.594Z,22.30
2018-07-03T07:54:41.864Z,22.50
2018-07-03T07:57:15.800Z,22.50
2018-07-03T07:59:50.187Z,22.60
2018-07-03T08:02:25.144Z,22.70
2018-07-03T08:04:59.040Z,22.80
2018-07-03T08:07:33.561Z,22.90
2018-07-03T08:10:07.615Z,22.90
2018-07-03T08:12:41.800Z,23.00
2018-07-03T08:15:16.099Z,23.10
2018-07-03T08:17:50.030Z,23.20
2018-07-03T08:20:24.156Z,23.20
2018-07-03T08:22:58.458Z,23.20
2018-07-03T08:25:35.518Z,23.30
2018-07-03T08:28:09.564Z,23.40
2018-07-03T08:30:43.554Z,23.50
2018-07-03T08:33:17.761Z,23.60
2018-07-03T08:35:51.850Z,23.60
2018-07-03T08:38:25.670Z,23.80
2018-07-03T08:41:00.103Z,23.90
2018-07-03T08:43:34.229Z,23.90
2018-07-03T08:46:08.955Z,24.00
2018-07-03T08:48:42.855Z,24.10
2018-07-03T08:51:17.164Z,24.10
2018-07-03T08:53:51.156Z,24.00
2018-07-03T08:56:25.194Z,24.10
2018-07-03T08:58:59.519Z,24.20
2018-07-03T09:01:33.381Z,24.20
2018-07-03T09:04:07.427Z,24.30
2018-07-03T09:09:15.259Z,24.40
2018-07-03T09:11:49.435Z,24.50
2018-07-03T09:14:23.595Z,24.50
2018-07-03T09:17:02.001Z,24.60
2018-07-03T09:19:36.324Z,24.70
2018-07-03T09:22:15.396Z,24.80
2018-07-03T09:27:23.614Z,24.70
2018-07-03T09:29:57.751Z,24.70
2018-07-03T09:32:31.816Z,24.80
2018-07-03T09:37:39.918Z,25.10
2018-07-03T09:40:18.507Z,25.30
2018-07-03T09:42:52.584Z,25.40
2018-07-03T09:45:26.759Z,25.40
2018-07-03T09:48:00.770Z,25.50
2018-07-03T09:50:34.864Z,25.60
2018-07-03T09:53:08.748Z,25.50
2018-07-03T09:55:42.866Z,25.60
2018-07-03T09:58:16.783Z,25.70
2018-07-03T10:00:57.573Z,25.70
2018-07-03T10:03:32.000Z,25.80
2018-07-03T10:06:05.969Z,25.90
2018-07-03T10:08:40.354Z,26.00
2018-07-03T10:11:14.363Z,26.10
2018-07-03T10:13:48.347Z,26.20
2018-07-03T10:16:22.510Z,26.30
2018-07-03T10:18:56.503Z,26.40
2018-07-03T10:21:30.705Z,26.50
2018-07-03T10:24:04.775Z,26.60
2018-07-03T10:26:38.651Z,26.70
2018-07-03T10:29:12.613Z,26.70
2018-07-03T10:31:46.813Z,26.70
2018-07-03T10:34:20.893Z,26.80
2018-07-03T10:36:54.980Z,26.90
2018-07-03T10:39:29.064Z,27.00
2018-07-03T10:42:03.149Z,27.10
2018-07-03T10:44:36.991Z,27.20
2018-07-03T10:47:10.898Z,27.20
2018-07-03T10:49:45.348Z,27.30
2018-07-03T10:52:19.553Z,27.30
2018-07-03T10:54:53.518Z,27.30
2018-07-03T10:57:27.555Z,27.40
2018-07-03T11:00:01.665Z,27.50
2018-07-03T11:02:35.768Z,27.50
2018-07-03T11:05:09.716Z,27.40
2018-07-03T11:07:44.212Z,27.40
2018-07-03T11:10:18.068Z,27.40
2018-07-03T11:12:52.234Z,27.30
2018-07-03T11:15:26.374Z,27.20
2018-07-03T11:18:00.287Z,27.00
2018-07-03T11:20:34.269Z,27.10
2018-07-03T11:23:08.314Z,27.00
2018-07-03T11:25:43.145Z,27.10
2018-07-03T11:28:16.838Z,27.10
2018-07-03T11:30:50.884Z,27.10
2018-07-03T11:33:24.964Z,26.90
2018-07-03T11:35:59.039Z,26.70
2018-07-03T11:38:33.060Z,26.70
2018-07-03T11:46:14.657Z,26.70
2018-07-03T11:48:49.419Z,26.80
2018-07-03T11:51:23.374Z,26.90
2018-07-03T11:53:57.441Z,27.00
2018-07-03T11:56:31.534Z,27.10
2018-07-03T11:59:05.464Z,27.20
2018-07-03T12:01:39.511Z,27.20
2018-07-03T12:04:13.228Z,27.30
2018-07-03T12:06:47.892Z,27.30
2018-07-03T12:09:21.710Z,27.40
2018-07-03T12:11:55.558Z,27.40
2018-07-03T12:14:29.560Z,27.30
2018-07-03T12:17:03.603Z,27.30
2018-07-03T12:19:37.735Z,27.30
2018-07-03T12:22:11.834Z,27.30
2018-07-03T12:24:46.011Z,27.50
2018-07-03T12:27:20.010Z,27.60
2018-07-03T12:29:54.278Z,27.60
2018-07-03T12:32:28.264Z,27.80
2018-07-03T12:35:02.237Z,27.90
2018-07-03T12:37:36.325Z,27.90
2018-07-03T12:40:10.278Z,28.00
2018-07-03T12:42:44.156Z,28.00
2018-07-03T12:45:18.219Z,28.10
2018-07-03T12:47:52.314Z,28.20
2018-07-03T12:50:26.384Z,28.30
2018-07-03T12:53:00.474Z,28.30
2018-07-03T12:55:34.605Z,28.50
2018-07-03T12:58:08.417Z,28.60
2018-07-03T13:00:46.544Z,28.90
2018-07-03T13:03:20.539Z,29.20
2018-07-03T13:08:28.620Z,30.60
2018-07-03T13:11:02.504Z,31.30
2018-07-03T13:13:36.653Z,31.90
2018-07-03T13:16:11.047Z,32.40
2018-07-03T13:18:45.129Z,32.90
2018-07-03T13:21:19.296Z,33.30
2018-07-03T13:23:53.413Z,33.50
2018-07-03T13:26:27.649Z,33.30
2018-07-03T13:29:01.770Z,33.70
2018-07-03T13:31:35.763Z,33.80
2018-07-03T13:34:09.755Z,33.50
2018-07-03T13:36:43.678Z,33.60
2018-07-03T13:39:17.533Z,33.70
2018-07-03T13:41:51.660Z,33.50
2018-07-03T13:44:25.628Z,32.90
2018-07-03T13:46:59.759Z,32.40
2018-07-03T13:49:33.953Z,32.20
2018-07-03T13:52:07.963Z,32.00
2018-07-03T13:54:41.796Z,31.50
2018-07-03T13:57:16.144Z,31.60
2018-07-03T13:59:50.394Z,31.70
2018-07-03T14:02:25.036Z,31.50
2018-07-03T14:04:59.046Z,31.40
2018-07-03T14:07:32.944Z,31.20
2018-07-03T14:10:07.146Z,31.20
2018-07-03T14:12:41.231Z,31.20
2018-07-03T14:15:15.341Z,31.20
2018-07-03T14:17:50.033Z,31.30
2018-07-03T14:20:24.075Z,31.50
2018-07-03T14:22:58.294Z,31.50
2018-07-03T14:25:32.190Z,31.40
2018-07-03T14:28:06.247Z,31.40
2018-07-03T14:30:40.142Z,31.20
2018-07-03T14:33:14.264Z,31.20
2018-07-03T14:35:48.915Z,31.40
2018-07-03T14:38:23.210Z,31.40
2018-07-03T14:40:57.844Z,31.50
2018-07-03T14:43:31.753Z,31.50
2018-07-03T14:46:05.744Z,31.20
2018-07-03T14:48:39.869Z,31.00
2018-07-03T14:51:13.700Z,31.00
2018-07-03T14:56:22.213Z,30.90
2018-07-03T14:58:56.191Z,30.80
2018-07-03T15:01:30.168Z,30.80
2018-07-03T15:06:38.099Z,30.50
2018-07-03T15:09:15.030Z,30.40
2018-07-03T15:11:48.989Z,30.40
2018-07-03T15:14:23.163Z,30.50
2018-07-03T15:16:56.995Z,30.60
2018-07-03T15:19:36.793Z,30.40
2018-07-03T15:24:44.848Z,30.30
2018-07-03T15:27:18.787Z,30.30
2018-07-03T15:29:53.426Z,30.30
2018-07-03T15:32:27.949Z,30.30
2018-07-03T15:35:02.159Z,30.40
2018-07-03T15:37:36.108Z,30.50
2018-07-03T15:40:10.460Z,30.70
2018-07-03T15:42:44.458Z,30.80
2018-07-03T15:45:18.819Z,31.10
2018-07-03T15:47:53.186Z,31.20
2018-07-03T15:50:27.293Z,31.40
2018-07-03T15:53:01.117Z,31.50
2018-07-03T15:55:34.998Z,32.00
2018-07-03T16:00:42.780Z,33.00
2018-07-03T16:05:33.005Z,33.40
2018-07-03T16:09:17.185Z,33.30
2018-07-03T16:11:51.285Z,33.50
2018-07-03T16:14:25.276Z,33.90
2018-07-03T16:16:59.715Z,34.00
2018-07-03T16:19:39.200Z,33.60
2018-07-03T16:22:13.050Z,33.40
2018-07-03T16:24:47.462Z,33.50
2018-07-03T16:27:21.581Z,33.80
2018-07-03T16:29:55.468Z,34.40
2018-07-03T16:32:29.444Z,35.30
2018-07-03T16:35:03.781Z,36.50
2018-07-03T16:37:37.817Z,37.40
2018-07-03T16:40:11.868Z,38.00
2018-07-03T16:42:46.114Z,38.00
2018-07-03T16:45:20.218Z,37.50
2018-07-03T16:47:54.528Z,37.00
2018-07-03T16:50:28.665Z,36.10
2018-07-03T16:53:02.836Z,36.20
2018-07-03T16:55:36.851Z,36.10
2018-07-03T16:58:10.666Z,36.30
2018-07-03T17:00:44.699Z,35.80
2018-07-03T17:03:18.660Z,35.70
2018-07-03T17:05:57.783Z,35.50
2018-07-03T17:08:31.665Z,34.80
2018-07-03T17:11:06.088Z,34.00
2018-07-03T17:13:40.135Z,33.20
2018-07-03T17:16:14.156Z,32.30
2018-07-03T17:18:53.604Z,31.60
2018-07-03T17:21:27.394Z,31.10
2018-07-03T17:24:01.428Z,30.60
2018-07-03T17:26:36.077Z,30.20
2018-07-03T17:29:10.320Z,29.80
2018-07-03T17:31:44.689Z,29.50
2018-07-03T17:34:18.563Z,29.20
2018-07-03T17:36:52.763Z,29.00
2018-07-03T17:39:38.436Z,28.80
2018-07-03T17:46:01.281Z,28.60
2018-07-03T17:48:35.739Z,28.40
2018-07-03T17:51:11.165Z,28.20
2018-07-03T17:53:45.161Z,28.10
2018-07-03T17:56:19.059Z,27.90
2018-07-03T17:58:53.334Z,27.70
2018-07-03T18:01:28.267Z,27.70
2018-07-03T18:04:02.524Z,27.60
2018-07-03T18:06:36.780Z,27.40
2018-07-03T18:09:12.675Z,27.30
2018-07-03T18:11:46.719Z,27.20
2018-07-03T18:14:20.862Z,27.10
2018-07-03T18:16:54.846Z,27.00
2018-07-03T18:19:34.565Z,26.90
2018-07-03T18:22:08.864Z,26.80
2018-07-03T18:24:43.233Z,26.70
2018-07-03T18:27:17.096Z,26.60
2018-07-03T18:29:51.408Z,26.40
2018-07-03T18:32:26.413Z,26.30
2018-07-03T18:35:00.660Z,26.20
2018-07-03T18:37:34.920Z,26.10
2018-07-03T18:40:09.144Z,26.00
2018-07-03T18:42:43.329Z,25.90
2018-07-03T18:45:17.704Z,25.80
2018-07-03T18:47:51.869Z,25.70
2018-07-03T18:50:26.217Z,25.60
2018-07-03T18:53:00.489Z,25.40
2018-07-03T18:55:34.759Z,25.40
2018-07-03T18:58:08.723Z,25.20
2018-07-03T19:00:42.892Z,25.20
2018-07-03T19:03:17.507Z,25.10
2018-07-03T19:05:51.705Z,25.10
2018-07-03T19:08:25.963Z,25.00
2018-07-03T19:11:00.055Z,24.90
2018-07-03T19:13:34.284Z,24.90
2018-07-03T19:16:08.443Z,24.80
2018-07-03T19:18:42.591Z,24.70
2018-07-03T19:21:17.460Z,24.60
2018-07-03T19:23:52.072Z,24.30
2018-07-03T19:26:26.568Z,24.10
2018-07-03T19:29:00.788Z,24.00
2018-07-03T19:31:35.208Z,23.80
2018-07-03T19:34:09.621Z,23.60
2018-07-03T19:36:43.855Z,23.50
2018-07-03T19:39:18.730Z,23.30
2018-07-03T19:41:53.219Z,23.20
2018-07-03T19:44:27.374Z,23.10
2018-07-03T19:47:01.489Z,22.90
2018-07-03T19:49:36.030Z,22.80
2018-07-03T19:52:10.792Z,22.70
2018-07-03T19:54:45.521Z,22.60
2018-07-03T19:57:20.426Z,22.50
2018-07-03T19:59:54.769Z,22.30
2018-07-03T20:02:29.287Z,22.20
2018-07-03T20:05:03.591Z,22.10
2018-07-03T20:07:37.849Z,22.00
2018-07-03T20:10:11.994Z,21.90
2018-07-03T20:12:46.300Z,21.80
2018-07-03T20:15:21.037Z,21.70
2018-07-03T20:17:55.148Z,21.60
2018-07-03T20:20:29.625Z,21.50
2018-07-03T20:23:03.675Z,21.40
2018-07-03T20:25:38.221Z,21.30
2018-07-03T20:28:12.455Z,21.20
2018-07-03T20:30:46.545Z,21.10
2018-07-03T20:33:21.616Z,21.00
2018-07-03T20:35:55.673Z,20.90
2018-07-03T20:41:04.935Z,20.70
2018-07-03T20:43:40.780Z,20.70
2018-07-03T20:48:55.689Z,20.70
2018-07-03T20:51:29.688Z,20.70
2018-07-03T20:54:03.844Z,20.60
2018-07-03T20:56:37.835Z,20.60
2018-07-03T20:59:12.090Z,20.50
2018-07-03T21:01:46.006Z,20.40
2018-07-03T21:04:20.206Z,20.40
2018-07-03T21:06:54.105Z,20.30
2018-07-03T21:12:01.953Z,20.00
2018-07-03T21:14:35.848Z,19.90
2018-07-03T21:17:10.085Z,19.90
2018-07-03T21:19:44.345Z,19.70
2018-07-03T21:22:19.384Z,19.50
2018-07-03T21:24:53.151Z,19.50
2018-07-03T21:27:27.656Z,19.50
2018-07-03T21:30:01.616Z,19.50
2018-07-03T21:32:36.120Z,19.50
2018-07-03T21:35:10.330Z,19.60
2018-07-03T21:37:45.178Z,19.50
2018-07-03T21:40:19.258Z,19.40
2018-07-03T21:42:53.295Z,19.40
2018-07-03T21:45:27.822Z,19.20
2018-07-03T21:48:02.011Z,19.10
2018-07-03T21:50:36.193Z,19.10
2018-07-03T21:53:10.359Z,19.10
2018-07-03T21:55:44.849Z,18.90
2018-07-03T21:58:18.863Z,18.80
2018-07-03T22:00:53.137Z,18.60
2018-07-03T22:03:28.321Z,18.40
2018-07-03T22:06:02.503Z,18.40
2018-07-03T22:08:36.533Z,18.30
2018-07-03T22:11:10.325Z,18.20
2018-07-03T22:13:44.459Z,18.10
2018-07-03T22:16:18.565Z,18.00
2018-07-03T22:18:52.623Z,17.90
2018-07-03T22:21:26.478Z,17.80
2018-07-03T22:24:00.473Z,17.80
2018-07-03T22:26:34.329Z,17.70
2018-07-03T22:29:08.999Z,17.60
2018-07-03T22:31:43.017Z,17.60
2018-07-03T22:34:17.848Z,17.60
2018-07-03T22:36:52.085Z,17.60
2018-07-03T22:39:26.033Z,17.60
2018-07-03T22:41:59.885Z,17.50
2018-07-03T22:44:34.028Z,17.40
2018-07-03T22:47:08.043Z,17.30
2018-07-03T22:49:42.101Z,17.20
2018-07-03T22:52:16.156Z,17.20
2018-07-03T22:54:49.956Z,17.10
2018-07-03T22:57:23.894Z,17.00
2018-07-03T22:59:57.980Z,17.00
2018-07-03T23:02:32.308Z,17.00
2018-07-03T23:05:06.237Z,17.00
2018-07-03T23:07:40.144Z,17.00
2018-07-03T23:10:14.214Z,17.00
2018-07-03T23:12:48.363Z,17.00
2018-07-03T23:15:22.613Z,17.00
2018-07-03T23:17:57.119Z,17.00
2018-07-03T23:20:31.210Z,16.90
2018-07-03T23:23:05.219Z,16.90
2018-07-03T23:25:39.418Z,16.90
2018-07-03T23:28:13.331Z,16.90
2018-07-03T23:30:47.123Z,17.00
2018-07-03T23:33:21.174Z,17.00
2018-07-03T23:35:54.935Z,17.00
2018-07-03T23:38:28.862Z,16.90
2018-07-03T23:41:02.858Z,16.90
2018-07-03T23:43:37.225Z,16.90
2018-07-03T23:46:22.955Z,16.90
2018-07-03T23:49:08.325Z,16.80
2018-07-03T23:51:53.678Z,16.80
2018-07-03T23:54:39.349Z,16.60
2018-07-03T23:57:24.807Z,16.40
